sensor_id;sensor_type;location;lat;lon;timestamp;pressure;altitude;pressure_sealevel;temperature;humidity
16595;BME280;8410;52.532;13.336;2023-03-03T00:00:51;101928.22;;;1.90;91.95
16595;BME280;8410;52.532;13.336;2023-03-03T00:03:20;101934.13;;;1.77;91.77
16595;BME280;8410;52.532;13.336;2023-03-03T00:05:50;101932.44;;;1.90;92.90
16595;BME280;8410;52.532;13.336;2023-03-03T00:08:19;101926.09;;;2.10;92.15
16595;BME280;8410;52.532;13.336;2023-03-03T00:10:47;101936.03;;;1.93;89.97
16595;BME280;8410;52.532;13.336;2023-03-03T00:13:16;101936.00;;;1.80;91.19
16595;BME280;8410;52.532;13.336;2023-03-03T00:15:45;101937.56;;;1.53;93.17
16595;BME280;8410;52.532;13.336;2023-03-03T00:18:20;101929.00;;;2.03;92.37
16595;BME280;8410;52.532;13.336;2023-03-03T00:20:52;101923.13;;;2.42;89.20
16595;BME280;8410;52.532;13.336;2023-03-03T00:23:27;101931.09;;;1.45;91.62
16595;BME280;8410;52.532;13.336;2023-03-03T00:25:57;101904.06;;;2.35;91.68
16595;BME280;8410;52.532;13.336;2023-03-03T00:28:28;101892.97;;;3.29;86.74
16595;BME280;8410;52.532;13.336;2023-03-03T00:30:57;101907.63;;;3.05;85.17
16595;BME280;8410;52.532;13.336;2023-03-03T00:33:28;101907.38;;;2.74;86.36
16595;BME280;8410;52.532;13.336;2023-03-03T00:36:23;101906.50;;;2.60;88.17
16595;BME280;8410;52.532;13.336;2023-03-03T00:39:05;101921.53;;;1.79;89.82
16595;BME280;8410;52.532;13.336;2023-03-03T00:41:38;101925.44;;;1.74;91.26
16595;BME280;8410;52.532;13.336;2023-03-03T00:44:31;101902.94;;;2.05;90.15
16595;BME280;8410;52.532;13.336;2023-03-03T00:47:02;101907.75;;;2.27;88.54
16595;BME280;8410;52.532;13.336;2023-03-03T00:49:39;101895.81;;;2.13;90.35
16595;BME280;8410;52.532;13.336;2023-03-03T00:52:13;101909.13;;;2.22;88.80
16595;BME280;8410;52.532;13.336;2023-03-03T00:54:42;101913.56;;;1.61;91.47
16595;BME280;8410;52.532;13.336;2023-03-03T00:57:10;101909.69;;;1.66;92.65
16595;BME280;8410;52.532;13.336;2023-03-03T00:59:38;101908.31;;;1.21;91.63
16595;BME280;8410;52.532;13.336;2023-03-03T01:02:06;101899.09;;;1.85;94.69
16595;BME280;8410;52.532;13.336;2023-03-03T01:04:34;101890.34;;;2.86;89.64
16595;BME280;8410;52.532;13.336;2023-03-03T01:07:02;101881.34;;;3.20;85.30
16595;BME280;8410;52.532;13.336;2023-03-03T01:09:30;101882.03;;;3.17;84.09
16595;BME280;8410;52.532;13.336;2023-03-03T01:11:58;101897.63;;;3.08;84.27
16595;BME280;8410;52.532;13.336;2023-03-03T01:14:26;101886.53;;;2.13;88.65
16595;BME280;8410;52.532;13.336;2023-03-03T01:16:53;101890.56;;;2.36;88.17
16595;BME280;8410;52.532;13.336;2023-03-03T01:19:21;101898.34;;;1.99;88.40
16595;BME280;8410;52.532;13.336;2023-03-03T01:21:49;101897.63;;;1.50;90.66
16595;BME280;8410;52.532;13.336;2023-03-03T01:24:17;101895.44;;;1.18;92.88
16595;BME280;8410;52.532;13.336;2023-03-03T01:26:46;101884.81;;;1.74;92.32
16595;BME280;8410;52.532;13.336;2023-03-03T01:29:13;101885.75;;;2.01;90.81
16595;BME280;8410;52.532;13.336;2023-03-03T01:31:41;101883.03;;;2.11;88.83
16595;BME280;8410;52.532;13.336;2023-03-03T01:34:08;101872.88;;;3.06;87.85
16595;BME280;8410;52.532;13.336;2023-03-03T01:36:36;101876.56;;;2.43;87.34
16595;BME280;8410;52.532;13.336;2023-03-03T01:39:03;101864.75;;;2.57;86.99
16595;BME280;8410;52.532;13.336;2023-03-03T01:41:31;101850.06;;;2.66;87.87
16595;BME280;8410;52.532;13.336;2023-03-03T01:44:00;101860.09;;;2.78;85.41
16595;BME280;8410;52.532;13.336;2023-03-03T01:46:41;101852.25;;;2.60;85.79
16595;BME280;8410;52.532;13.336;2023-03-03T01:49:13;101845.28;;;2.99;86.00
16595;BME280;8410;52.532;13.336;2023-03-03T01:51:47;101850.19;;;2.54;86.19
16595;BME280;8410;52.532;13.336;2023-03-03T01:54:20;101844.34;;;2.97;86.70
16595;BME280;8410;52.532;13.336;2023-03-03T01:56:49;101854.88;;;2.21;87.59
16595;BME280;8410;52.532;13.336;2023-03-03T01:59:22;101852.38;;;2.90;88.27
16595;BME280;8410;52.532;13.336;2023-03-03T02:01:52;101857.84;;;2.41;87.31
16595;BME280;8410;52.532;13.336;2023-03-03T02:04:20;101852.97;;;2.72;87.33
16595;BME280;8410;52.532;13.336;2023-03-03T02:06:51;101854.63;;;2.30;89.04
16595;BME280;8410;52.532;13.336;2023-03-03T02:09:24;101854.22;;;2.92;86.37
16595;BME280;8410;52.532;13.336;2023-03-03T02:11:57;101870.53;;;2.28;88.14
16595;BME280;8410;52.532;13.336;2023-03-03T02:14:27;101871.03;;;2.09;89.10
16595;BME280;8410;52.532;13.336;2023-03-03T02:16:55;101864.47;;;2.39;87.82
16595;BME280;8410;52.532;13.336;2023-03-03T02:19:29;101867.47;;;2.73;87.01
16595;BME280;8410;52.532;13.336;2023-03-03T02:21:59;101865.88;;;2.75;86.94
16595;BME280;8410;52.532;13.336;2023-03-03T02:24:32;101871.03;;;2.49;87.71
16595;BME280;8410;52.532;13.336;2023-03-03T02:27:02;101868.88;;;2.41;88.13
16595;BME280;8410;52.532;13.336;2023-03-03T02:29:30;101875.31;;;2.36;88.73
16595;BME280;8410;52.532;13.336;2023-03-03T02:31:57;101875.63;;;2.28;87.73
16595;BME280;8410;52.532;13.336;2023-03-03T02:34:25;101872.97;;;2.53;87.17
16595;BME280;8410;52.532;13.336;2023-03-03T02:36:52;101875.13;;;2.33;89.67
16595;BME280;8410;52.532;13.336;2023-03-03T02:39:22;101871.19;;;2.78;86.87
16595;BME280;8410;52.532;13.336;2023-03-03T02:41:52;101869.44;;;2.24;89.29
16595;BME280;8410;52.532;13.336;2023-03-03T02:44:24;101862.41;;;2.73;87.56
16595;BME280;8410;52.532;13.336;2023-03-03T02:46:53;101879.50;;;2.76;85.90
16595;BME280;8410;52.532;13.336;2023-03-03T02:49:22;101872.56;;;2.73;86.87
16595;BME280;8410;52.532;13.336;2023-03-03T02:51:50;101870.53;;;2.96;85.97
16595;BME280;8410;52.532;13.336;2023-03-03T02:54:19;101867.28;;;2.70;87.51
16595;BME280;8410;52.532;13.336;2023-03-03T02:56:47;101874.81;;;2.29;87.53
16595;BME280;8410;52.532;13.336;2023-03-03T02:59:15;101874.72;;;2.27;88.43
16595;BME280;8410;52.532;13.336;2023-03-03T03:01:45;101866.69;;;2.74;87.67
16595;BME280;8410;52.532;13.336;2023-03-03T03:04:14;101876.47;;;2.81;86.59
16595;BME280;8410;52.532;13.336;2023-03-03T03:06:43;101878.56;;;2.88;86.44
16595;BME280;8410;52.532;13.336;2023-03-03T03:09:12;101883.13;;;2.53;87.55
16595;BME280;8410;52.532;13.336;2023-03-03T03:11:40;101878.22;;;2.03;88.59
16595;BME280;8410;52.532;13.336;2023-03-03T03:14:09;101879.78;;;2.27;90.25
16595;BME280;8410;52.532;13.336;2023-03-03T03:16:38;101883.13;;;2.39;89.35
16595;BME280;8410;52.532;13.336;2023-03-03T03:19:07;101897.41;;;2.37;88.96
16595;BME280;8410;52.532;13.336;2023-03-03T03:21:35;101902.03;;;1.91;89.41
16595;BME280;8410;52.532;13.336;2023-03-03T03:24:02;101910.78;;;1.70;90.10
16595;BME280;8410;52.532;13.336;2023-03-03T03:26:30;101897.78;;;2.17;90.71
16595;BME280;8410;52.532;13.336;2023-03-03T03:28:57;101897.84;;;2.05;91.04
16595;BME280;8410;52.532;13.336;2023-03-03T03:31:25;101908.50;;;1.99;90.72
16595;BME280;8410;52.532;13.336;2023-03-03T03:33:52;101905.72;;;1.83;91.09
16595;BME280;8410;52.532;13.336;2023-03-03T03:36:21;101908.84;;;2.31;89.79
16595;BME280;8410;52.532;13.336;2023-03-03T03:38:49;101914.09;;;1.69;91.24
16595;BME280;8410;52.532;13.336;2023-03-03T03:41:17;101900.34;;;2.57;90.18
16595;BME280;8410;52.532;13.336;2023-03-03T03:43:45;101893.84;;;2.88;87.68
16595;BME280;8410;52.532;13.336;2023-03-03T03:46:13;101894.09;;;3.06;86.78
16595;BME280;8410;52.532;13.336;2023-03-03T03:48:40;101893.84;;;2.88;86.25
16595;BME280;8410;52.532;13.336;2023-03-03T03:51:09;101890.53;;;2.90;86.34
16595;BME280;8410;52.532;13.336;2023-03-03T03:53:38;101884.28;;;2.71;87.05
16595;BME280;8410;52.532;13.336;2023-03-03T03:56:06;101884.47;;;2.74;86.87
16595;BME280;8410;52.532;13.336;2023-03-03T03:58:34;101885.09;;;2.17;87.72
16595;BME280;8410;52.532;13.336;2023-03-03T04:01:02;101884.13;;;2.28;89.26
16595;BME280;8410;52.532;13.336;2023-03-03T04:03:30;101877.66;;;2.73;87.25
16595;BME280;8410;52.532;13.336;2023-03-03T04:05:58;101872.94;;;1.99;89.12
16595;BME280;8410;52.532;13.336;2023-03-03T04:08:25;101878.63;;;2.09;89.39
16595;BME280;8410;52.532;13.336;2023-03-03T04:10:54;101873.16;;;2.29;89.94
16595;BME280;8410;52.532;13.336;2023-03-03T04:13:22;101866.88;;;2.77;87.85
16595;BME280;8410;52.532;13.336;2023-03-03T04:15:49;101866.28;;;2.81;86.11
16595;BME280;8410;52.532;13.336;2023-03-03T04:18:17;101869.59;;;2.80;86.12
16595;BME280;8410;52.532;13.336;2023-03-03T04:20:44;101864.97;;;2.33;88.03
16595;BME280;8410;52.532;13.336;2023-03-03T04:23:12;101874.28;;;1.43;89.99
16595;BME280;8410;52.532;13.336;2023-03-03T04:25:40;101872.34;;;1.02;92.53
16595;BME280;8410;52.532;13.336;2023-03-03T04:28:08;101868.28;;;1.29;93.94
16595;BME280;8410;52.532;13.336;2023-03-03T04:30:36;101864.00;;;1.41;92.89
16595;BME280;8410;52.532;13.336;2023-03-03T04:33:03;101860.56;;;2.04;91.79
16595;BME280;8410;52.532;13.336;2023-03-03T04:35:31;101859.56;;;2.42;89.73
16595;BME280;8410;52.532;13.336;2023-03-03T04:37:58;101865.88;;;1.19;92.84
16595;BME280;8410;52.532;13.336;2023-03-03T04:40:26;101852.72;;;1.88;93.13
16595;BME280;8410;52.532;13.336;2023-03-03T04:42:54;101856.25;;;1.51;93.03
16595;BME280;8410;52.532;13.336;2023-03-03T04:45:23;101862.75;;;1.73;92.26
16595;BME280;8410;52.532;13.336;2023-03-03T04:47:50;101863.78;;;2.15;93.51
16595;BME280;8410;52.532;13.336;2023-03-03T04:50:17;101857.50;;;2.63;90.09
16595;BME280;8410;52.532;13.336;2023-03-03T04:52:46;101864.34;;;2.11;89.27
16595;BME280;8410;52.532;13.336;2023-03-03T04:55:13;101873.69;;;1.47;91.46
16595;BME280;8410;52.532;13.336;2023-03-03T04:57:42;101863.56;;;1.98;90.96
16595;BME280;8410;52.532;13.336;2023-03-03T05:00:11;101860.25;;;2.13;91.49
16595;BME280;8410;52.532;13.336;2023-03-03T05:02:41;101858.09;;;2.06;90.38
16595;BME280;8410;52.532;13.336;2023-03-03T05:05:08;101860.31;;;1.74;89.90
16595;BME280;8410;52.532;13.336;2023-03-03T05:07:36;101858.63;;;1.12;93.23
16595;BME280;8410;52.532;13.336;2023-03-03T05:10:05;101852.19;;;1.28;95.66
16595;BME280;8410;52.532;13.336;2023-03-03T05:12:33;101849.47;;;1.77;94.72
16595;BME280;8410;52.532;13.336;2023-03-03T05:15:00;101849.09;;;1.84;93.07
16595;BME280;8410;52.532;13.336;2023-03-03T05:17:28;101846.38;;;1.94;92.83
16595;BME280;8410;52.532;13.336;2023-03-03T05:19:57;101843.31;;;1.73;90.98
16595;BME280;8410;52.532;13.336;2023-03-03T05:22:24;101848.78;;;1.41;94.78
16595;BME280;8410;52.532;13.336;2023-03-03T05:24:52;101839.94;;;2.13;93.62
16595;BME280;8410;52.532;13.336;2023-03-03T05:27:19;101839.78;;;2.78;91.14
16595;BME280;8410;52.532;13.336;2023-03-03T05:29:47;101838.81;;;3.04;89.24
16595;BME280;8410;52.532;13.336;2023-03-03T05:32:14;101848.66;;;2.84;88.51
16595;BME280;8410;52.532;13.336;2023-03-03T05:34:42;101855.03;;;3.19;87.53
16595;BME280;8410;52.532;13.336;2023-03-03T05:37:11;101863.78;;;2.41;87.36
16595;BME280;8410;52.532;13.336;2023-03-03T05:39:38;101879.59;;;1.59;90.84
16595;BME280;8410;52.532;13.336;2023-03-03T05:42:06;101884.94;;;0.88;93.76
16595;BME280;8410;52.532;13.336;2023-03-03T05:44:33;101882.63;;;1.17;96.15
16595;BME280;8410;52.532;13.336;2023-03-03T05:47:01;101886.97;;;0.57;97.30
16595;BME280;8410;52.532;13.336;2023-03-03T05:49:28;101881.13;;;0.11;99.98
16595;BME280;8410;52.532;13.336;2023-03-03T05:51:56;101890.50;;;0.36;100.00
16595;BME280;8410;52.532;13.336;2023-03-03T05:54:25;101891.38;;;0.25;100.00
16595;BME280;8410;52.532;13.336;2023-03-03T05:56:53;101894.34;;;1.65;99.25
16595;BME280;8410;52.532;13.336;2023-03-03T05:59:22;101883.25;;;2.41;93.78
16595;BME280;8410;52.532;13.336;2023-03-03T06:01:50;101885.44;;;1.96;90.58
16595;BME280;8410;52.532;13.336;2023-03-03T06:04:18;101886.28;;;2.49;91.30
16595;BME280;8410;52.532;13.336;2023-03-03T06:06:45;101877.56;;;2.58;88.77
16595;BME280;8410;52.532;13.336;2023-03-03T06:09:13;101884.50;;;2.48;88.74
16595;BME280;8410;52.532;13.336;2023-03-03T06:11:42;101886.50;;;1.87;89.18
16595;BME280;8410;52.532;13.336;2023-03-03T06:14:09;101890.91;;;1.26;92.12
16595;BME280;8410;52.532;13.336;2023-03-03T06:16:37;101902.47;;;1.22;93.36
16595;BME280;8410;52.532;13.336;2023-03-03T06:19:04;101896.31;;;1.19;93.74
16595;BME280;8410;52.532;13.336;2023-03-03T06:21:32;101903.06;;;1.43;93.58
16595;BME280;8410;52.532;13.336;2023-03-03T06:23:59;101899.38;;;1.26;93.28
16595;BME280;8410;52.532;13.336;2023-03-03T06:26:27;101907.22;;;0.57;94.52
16595;BME280;8410;52.532;13.336;2023-03-03T06:28:56;101911.78;;;0.98;96.05
16595;BME280;8410;52.532;13.336;2023-03-03T06:31:23;101906.91;;;1.13;95.25
16595;BME280;8410;52.532;13.336;2023-03-03T06:33:51;101907.91;;;0.43;97.99
16595;BME280;8410;52.532;13.336;2023-03-03T06:36:19;101910.28;;;0.53;99.20
16595;BME280;8410;52.532;13.336;2023-03-03T06:38:47;101907.94;;;1.40;98.47
16595;BME280;8410;52.532;13.336;2023-03-03T06:41:14;101910.16;;;1.61;94.73
16595;BME280;8410;52.532;13.336;2023-03-03T06:43:42;101903.06;;;1.82;92.68
16595;BME280;8410;52.532;13.336;2023-03-03T06:46:10;101905.38;;;1.40;93.42
16595;BME280;8410;52.532;13.336;2023-03-03T06:48:38;101910.25;;;1.00;95.22
16595;BME280;8410;52.532;13.336;2023-03-03T06:51:18;101908.50;;;0.99;95.51
16595;BME280;8410;52.532;13.336;2023-03-03T06:53:47;101911.19;;;1.26;95.98
16595;BME280;8410;52.532;13.336;2023-03-03T06:56:15;101917.47;;;1.19;95.08
16595;BME280;8410;52.532;13.336;2023-03-03T06:58:43;101911.22;;;2.03;94.11
16595;BME280;8410;52.532;13.336;2023-03-03T07:01:15;101932.28;;;1.01;94.45
16595;BME280;8410;52.532;13.336;2023-03-03T07:03:44;101934.03;;;1.14;96.88
16595;BME280;8410;52.532;13.336;2023-03-03T07:06:20;101938.13;;;1.00;97.75
16595;BME280;8410;52.532;13.336;2023-03-03T07:08:48;101942.72;;;1.54;97.43
16595;BME280;8410;52.532;13.336;2023-03-03T07:11:18;101928.47;;;2.20;94.08
16595;BME280;8410;52.532;13.336;2023-03-03T07:13:47;101921.63;;;2.85;92.24
16595;BME280;8410;52.532;13.336;2023-03-03T07:16:18;101940.34;;;2.59;88.63
16595;BME280;8410;52.532;13.336;2023-03-03T07:18:49;101934.81;;;2.27;89.45
16595;BME280;8410;52.532;13.336;2023-03-03T07:21:19;101935.69;;;2.27;87.93
16595;BME280;8410;52.532;13.336;2023-03-03T07:23:48;101947.03;;;2.32;90.28
16595;BME280;8410;52.532;13.336;2023-03-03T07:26:18;101942.66;;;2.43;89.45
16595;BME280;8410;52.532;13.336;2023-03-03T07:28:51;101949.41;;;1.91;90.79
16595;BME280;8410;52.532;13.336;2023-03-03T07:31:36;101955.56;;;1.44;92.23
16595;BME280;8410;52.532;13.336;2023-03-03T07:34:15;101956.59;;;1.60;93.46
16595;BME280;8410;52.532;13.336;2023-03-03T07:36:46;101964.81;;;1.81;93.51
16595;BME280;8410;52.532;13.336;2023-03-03T07:39:25;101964.88;;;1.57;92.34
16595;BME280;8410;52.532;13.336;2023-03-03T07:41:59;101966.31;;;1.28;94.46
16595;BME280;8410;52.532;13.336;2023-03-03T07:44:33;101963.38;;;1.10;95.53
16595;BME280;8410;52.532;13.336;2023-03-03T07:47:13;101963.19;;;0.84;96.29
16595;BME280;8410;52.532;13.336;2023-03-03T07:49:41;101965.38;;;1.03;96.61
16595;BME280;8410;52.532;13.336;2023-03-03T07:52:22;101975.06;;;1.08;98.50
16595;BME280;8410;52.532;13.336;2023-03-03T07:54:51;101978.91;;;1.52;96.83
16595;BME280;8410;52.532;13.336;2023-03-03T07:57:22;101969.16;;;2.08;94.75
16595;BME280;8410;52.532;13.336;2023-03-03T07:59:52;101970.31;;;2.00;93.35
16595;BME280;8410;52.532;13.336;2023-03-03T08:02:47;101961.63;;;1.96;91.96
16595;BME280;8410;52.532;13.336;2023-03-03T08:05:28;101959.69;;;2.06;92.16
16595;BME280;8410;52.532;13.336;2023-03-03T08:08:11;101966.56;;;2.07;91.78
16595;BME280;8410;52.532;13.336;2023-03-03T08:10:43;101968.31;;;2.08;91.20
16595;BME280;8410;52.532;13.336;2023-03-03T08:13:17;101964.16;;;2.48;92.00
16595;BME280;8410;52.532;13.336;2023-03-03T08:15:46;101956.66;;;2.63;91.74
16595;BME280;8410;52.532;13.336;2023-03-03T08:18:22;101958.78;;;1.67;92.43
16595;BME280;8410;52.532;13.336;2023-03-03T08:20:52;101960.34;;;1.90;94.18
16595;BME280;8410;52.532;13.336;2023-03-03T08:23:21;101965.69;;;1.56;93.88
16595;BME280;8410;52.532;13.336;2023-03-03T08:25:50;101964.91;;;1.82;94.35
16595;BME280;8410;52.532;13.336;2023-03-03T08:28:18;101959.25;;;2.11;92.36
16595;BME280;8410;52.532;13.336;2023-03-03T08:30:46;101961.06;;;2.01;92.83
16595;BME280;8410;52.532;13.336;2023-03-03T08:33:15;101959.75;;;1.94;91.99
16595;BME280;8410;52.532;13.336;2023-03-03T08:35:44;101952.06;;;2.44;91.62
16595;BME280;8410;52.532;13.336;2023-03-03T08:38:13;101952.91;;;2.31;90.92
16595;BME280;8410;52.532;13.336;2023-03-03T08:40:42;101963.50;;;2.77;89.30
16595;BME280;8410;52.532;13.336;2023-03-03T08:43:10;101954.88;;;2.35;90.58
16595;BME280;8410;52.532;13.336;2023-03-03T08:45:43;101967.03;;;2.01;91.55
16595;BME280;8410;52.532;13.336;2023-03-03T08:48:11;101970.81;;;1.94;91.59
16595;BME280;8410;52.532;13.336;2023-03-03T08:50:39;101964.56;;;2.41;92.09
16595;BME280;8410;52.532;13.336;2023-03-03T08:53:09;101977.19;;;1.76;92.41
16595;BME280;8410;52.532;13.336;2023-03-03T08:55:36;101974.47;;;2.11;93.55
16595;BME280;8410;52.532;13.336;2023-03-03T08:58:04;101963.91;;;2.70;90.47
16595;BME280;8410;52.532;13.336;2023-03-03T09:00:32;101970.69;;;2.18;90.71
16595;BME280;8410;52.532;13.336;2023-03-03T09:03:01;101962.81;;;2.53;92.10
16595;BME280;8410;52.532;13.336;2023-03-03T09:05:28;101962.53;;;2.49;89.70
16595;BME280;8410;52.532;13.336;2023-03-03T09:07:57;101965.31;;;3.06;88.98
16595;BME280;8410;52.532;13.336;2023-03-03T09:10:27;101954.72;;;3.83;88.80
16595;BME280;8410;52.532;13.336;2023-03-03T09:12:59;101944.03;;;4.48;89.88
16595;BME280;8410;52.532;13.336;2023-03-03T09:15:30;101942.63;;;5.16;90.49
16595;BME280;8410;52.532;13.336;2023-03-03T09:18:04;101936.28;;;5.24;91.04
16595;BME280;8410;52.532;13.336;2023-03-03T09:20:38;101945.38;;;5.35;92.92
16595;BME280;8410;52.532;13.336;2023-03-03T09:23:27;101939.81;;;5.59;87.79
16595;BME280;8410;52.532;13.336;2023-03-03T09:25:57;101929.13;;;7.45;85.53
16595;BME280;8410;52.532;13.336;2023-03-03T09:28:27;101922.63;;;8.76;85.89
16595;BME280;8410;52.532;13.336;2023-03-03T09:30:57;101919.28;;;9.47;82.12
16595;BME280;8410;52.532;13.336;2023-03-03T09:33:28;101920.16;;;8.79;78.13
16595;BME280;8410;52.532;13.336;2023-03-03T09:36:03;101912.72;;;9.80;79.24
16595;BME280;8410;52.532;13.336;2023-03-03T09:38:32;101923.88;;;9.80;73.60
16595;BME280;8410;52.532;13.336;2023-03-03T09:41:26;101916.56;;;10.18;77.07
16595;BME280;8410;52.532;13.336;2023-03-03T09:44:10;101919.59;;;10.86;73.51
16595;BME280;8410;52.532;13.336;2023-03-03T09:46:52;101932.22;;;8.80;64.74
16595;BME280;8410;52.532;13.336;2023-03-03T09:49:30;101953.19;;;5.55;76.28
16595;BME280;8410;52.532;13.336;2023-03-03T09:52:20;101950.09;;;4.20;79.69
16595;BME280;8410;52.532;13.336;2023-03-03T09:54:55;101956.16;;;3.65;83.13
16595;BME280;8410;52.532;13.336;2023-03-03T09:57:40;101957.78;;;3.49;84.86
16595;BME280;8410;52.532;13.336;2023-03-03T10:00:44;101951.78;;;4.50;82.79
16595;BME280;8410;52.532;13.336;2023-03-03T10:03:50;101951.41;;;4.14;81.34
16595;BME280;8410;52.532;13.336;2023-03-03T10:06:24;101952.47;;;4.03;83.35
16595;BME280;8410;52.532;13.336;2023-03-03T10:09:02;101966.00;;;3.59;85.63
16595;BME280;8410;52.532;13.336;2023-03-03T10:11:37;101960.13;;;4.17;84.40
16595;BME280;8410;52.532;13.336;2023-03-03T10:14:24;101954.84;;;4.90;81.43
16595;BME280;8410;52.532;13.336;2023-03-03T10:17:08;101956.28;;;3.81;81.98
16595;BME280;8410;52.532;13.336;2023-03-03T10:19:50;101957.06;;;3.37;86.27
16595;BME280;8410;52.532;13.336;2023-03-03T10:22:32;101944.19;;;3.92;84.67
16595;BME280;8410;52.532;13.336;2023-03-03T10:25:07;101940.69;;;4.49;83.28
16595;BME280;8410;52.532;13.336;2023-03-03T10:27:49;101944.50;;;4.87;81.78
16595;BME280;8410;52.532;13.336;2023-03-03T10:30:26;101944.56;;;4.28;82.03
16595;BME280;8410;52.532;13.336;2023-03-03T10:33:18;101947.19;;;3.57;85.54
16595;BME280;8410;52.532;13.336;2023-03-03T10:38:51;101941.25;;;4.75;83.39
16595;BME280;8410;52.532;13.336;2023-03-03T10:41:40;101946.84;;;4.23;82.53
16595;BME280;8410;52.532;13.336;2023-03-03T10:44:26;101947.00;;;4.41;82.31
16595;BME280;8410;52.532;13.336;2023-03-03T10:47:14;101943.22;;;5.43;81.93
16595;BME280;8410;52.532;13.336;2023-03-03T10:49:56;101942.66;;;5.48;78.50
16595;BME280;8410;52.532;13.336;2023-03-03T10:52:32;101942.59;;;4.99;80.54
16595;BME280;8410;52.532;13.336;2023-03-03T10:55:34;101957.56;;;4.17;83.95
16595;BME280;8410;52.532;13.336;2023-03-03T10:58:15;101956.63;;;3.72;87.40
16595;BME280;8410;52.532;13.336;2023-03-03T11:00:48;101953.47;;;3.76;86.44
16595;BME280;8410;52.532;13.336;2023-03-03T11:03:43;101959.34;;;3.19;90.63
16595;BME280;8410;52.532;13.336;2023-03-03T11:06:19;101961.81;;;3.46;89.47
16595;BME280;8410;52.532;13.336;2023-03-03T11:08:51;101951.06;;;3.93;88.40
16595;BME280;8410;52.532;13.336;2023-03-03T11:11:26;101949.13;;;4.18;86.80
16595;BME280;8410;52.532;13.336;2023-03-03T11:14:02;101948.34;;;4.05;84.82
16595;BME280;8410;52.532;13.336;2023-03-03T11:16:39;101950.78;;;4.03;86.22
16595;BME280;8410;52.532;13.336;2023-03-03T11:19:24;101961.94;;;3.34;88.39
16595;BME280;8410;52.532;13.336;2023-03-03T11:22:01;101944.56;;;4.13;87.30
16595;BME280;8410;52.532;13.336;2023-03-03T11:24:44;101942.28;;;4.47;86.21
16595;BME280;8410;52.532;13.336;2023-03-03T11:27:30;101936.25;;;4.61;85.82
16595;BME280;8410;52.532;13.336;2023-03-03T11:30:07;101943.03;;;5.23;81.90
16595;BME280;8410;52.532;13.336;2023-03-03T11:32:48;101943.22;;;4.95;84.00
16595;BME280;8410;52.532;13.336;2023-03-03T11:35:22;101944.81;;;4.47;84.65
16595;BME280;8410;52.532;13.336;2023-03-03T11:38:09;101932.25;;;4.50;84.97
16595;BME280;8410;52.532;13.336;2023-03-03T11:40:45;101934.69;;;4.49;86.68
16595;BME280;8410;52.532;13.336;2023-03-03T11:43:18;101931.97;;;4.92;82.77
16595;BME280;8410;52.532;13.336;2023-03-03T11:46:04;101929.41;;;4.92;83.76
16595;BME280;8410;52.532;13.336;2023-03-03T11:48:38;101933.38;;;5.34;82.03
16595;BME280;8410;52.532;13.336;2023-03-03T11:51:13;101938.03;;;4.33;84.11
16595;BME280;8410;52.532;13.336;2023-03-03T11:53:53;101936.97;;;4.74;86.79
16595;BME280;8410;52.532;13.336;2023-03-03T11:56:26;101934.03;;;4.82;83.76
16595;BME280;8410;52.532;13.336;2023-03-03T11:59:02;101924.69;;;4.22;84.85
16595;BME280;8410;52.532;13.336;2023-03-03T12:01:38;101918.84;;;4.54;85.63
16595;BME280;8410;52.532;13.336;2023-03-03T12:04:12;101916.41;;;4.56;84.65
16595;BME280;8410;52.532;13.336;2023-03-03T12:06:52;101919.22;;;4.60;86.31
16595;BME280;8410;52.532;13.336;2023-03-03T12:09:48;101903.41;;;4.82;84.53
16595;BME280;8410;52.532;13.336;2023-03-03T12:12:21;101897.16;;;4.92;84.13
16595;BME280;8410;52.532;13.336;2023-03-03T12:15:00;101897.03;;;4.59;85.52
16595;BME280;8410;52.532;13.336;2023-03-03T12:17:43;101898.28;;;4.97;83.91
16595;BME280;8410;52.532;13.336;2023-03-03T12:20:22;101888.44;;;5.70;82.57
16595;BME280;8410;52.532;13.336;2023-03-03T12:23:03;101878.84;;;6.17;80.33
16595;BME280;8410;52.532;13.336;2023-03-03T12:25:35;101880.13;;;5.24;82.02
16595;BME280;8410;52.532;13.336;2023-03-03T12:28:09;101882.09;;;5.46;82.53
16595;BME280;8410;52.532;13.336;2023-03-03T12:31:05;101872.25;;;5.88;82.28
16595;BME280;8410;52.532;13.336;2023-03-03T12:33:49;101863.00;;;6.24;79.89
16595;BME280;8410;52.532;13.336;2023-03-03T12:36:28;101868.41;;;5.78;80.24
16595;BME280;8410;52.532;13.336;2023-03-03T12:39:07;101866.94;;;5.49;82.15
16595;BME280;8410;52.532;13.336;2023-03-03T12:41:43;101875.78;;;5.06;82.77
16595;BME280;8410;52.532;13.336;2023-03-03T12:44:17;101869.91;;;5.24;84.47
16595;BME280;8410;52.532;13.336;2023-03-03T12:46:55;101865.72;;;5.93;83.19
16595;BME280;8410;52.532;13.336;2023-03-03T12:49:34;101862.78;;;6.02;81.14
16595;BME280;8410;52.532;13.336;2023-03-03T12:52:20;101860.81;;;6.50;78.90
16595;BME280;8410;52.532;13.336;2023-03-03T12:55:00;101864.91;;;6.83;78.33
16595;BME280;8410;52.532;13.336;2023-03-03T12:57:34;101858.84;;;6.81;78.43
16595;BME280;8410;52.532;13.336;2023-03-03T13:00:23;101851.69;;;6.55;78.44
16595;BME280;8410;52.532;13.336;2023-03-03T13:03:00;101851.13;;;6.62;77.81
16595;BME280;8410;52.532;13.336;2023-03-03T13:05:39;101844.69;;;6.70;79.12
16595;BME280;8410;52.532;13.336;2023-03-03T13:08:35;101840.41;;;6.89;76.40
16595;BME280;8410;52.532;13.336;2023-03-03T13:11:22;101837.41;;;6.60;77.14
16595;BME280;8410;52.532;13.336;2023-03-03T13:13:58;101839.84;;;6.21;79.71
16595;BME280;8410;52.532;13.336;2023-03-03T13:16:33;101843.94;;;6.00;79.36
16595;BME280;8410;52.532;13.336;2023-03-03T13:19:08;101847.59;;;5.05;83.39
16595;BME280;8410;52.532;13.336;2023-03-03T13:21:41;101837.56;;;5.41;82.25
16595;BME280;8410;52.532;13.336;2023-03-03T13:24:17;101833.97;;;4.88;84.77
16595;BME280;8410;52.532;13.336;2023-03-03T13:26:52;101831.81;;;5.45;83.55
16595;BME280;8410;52.532;13.336;2023-03-03T13:29:25;101841.75;;;4.43;87.39
16595;BME280;8410;52.532;13.336;2023-03-03T13:31:55;101831.13;;;5.15;85.50